createdAt,value
2018-11-26T00:02:43.424Z,22.20
2018-11-26T00:05:12.557Z,20.67
2018-11-26T00:08:01.414Z,19.33
2018-11-26T00:11:09.299Z,18.47
2018-11-26T00:13:58.214Z,19.30
2018-11-26T00:19:54.673Z,19.13
2018-11-26T00:22:43.294Z,19.00
2018-11-26T00:25:32.041Z,20.13
2018-11-26T00:28:20.724Z,19.20
2018-11-26T00:31:09.090Z,18.20
2018-11-26T00:33:57.695Z,18.67
2018-11-26T00:36:46.045Z,19.97
2018-11-26T00:39:34.381Z,19.23
2018-11-26T00:42:22.738Z,20.10
2018-11-26T00:45:11.817Z,18.27
2018-11-26T00:48:00.165Z,18.40
2018-11-26T00:50:49.059Z,20.77
2018-11-26T00:53:37.831Z,17.93
2018-11-26T00:56:26.617Z,20.20
2018-11-26T00:59:15.087Z,21.53
2018-11-26T01:02:03.423Z,19.63
2018-11-26T01:04:51.793Z,20.97
2018-11-26T01:07:40.659Z,19.87
2018-11-26T01:10:29.252Z,19.13
2018-11-26T01:13:17.571Z,20.60
2018-11-26T01:16:06.389Z,20.10
2018-11-26T01:18:54.716Z,21.37
2018-11-26T01:21:43.505Z,18.87
2018-11-26T01:24:31.828Z,19.20
2018-11-26T01:27:20.211Z,18.57
2018-11-26T01:30:08.740Z,18.70
2018-11-26T01:32:57.537Z,21.90
2018-11-26T01:35:45.874Z,19.00
2018-11-26T01:38:34.213Z,19.57
2018-11-26T01:41:22.568Z,19.47
2018-11-26T01:44:11.276Z,20.40
2018-11-26T01:46:59.809Z,20.57
2018-11-26T01:49:48.172Z,19.87
2018-11-26T01:52:36.504Z,18.87
2018-11-26T01:55:24.840Z,21.87
2018-11-26T01:58:13.188Z,20.23
2018-11-26T02:01:01.528Z,21.13
2018-11-26T02:03:50.622Z,20.80
2018-11-26T02:06:38.950Z,20.37
2018-11-26T02:09:27.305Z,20.77
2018-11-26T02:12:15.637Z,20.40
2018-11-26T02:15:04.208Z,19.97
2018-11-26T02:17:52.550Z,20.13
2018-11-26T02:20:41.648Z,21.37
2018-11-26T02:23:29.986Z,19.07
2018-11-26T02:26:18.327Z,20.40
2018-11-26T02:29:06.793Z,21.10
2018-11-26T02:31:55.581Z,21.40
2018-11-26T02:34:43.903Z,20.50
2018-11-26T02:37:32.261Z,18.37
2018-11-26T02:40:20.973Z,20.73
2018-11-26T02:43:09.441Z,19.27
2018-11-26T02:45:58.277Z,19.00
2018-11-26T02:48:46.840Z,19.23
2018-11-26T02:51:35.726Z,20.90
2018-11-26T02:54:24.046Z,18.83
2018-11-26T02:57:12.393Z,19.60
2018-11-26T03:00:00.721Z,19.20
2018-11-26T03:02:49.791Z,18.33
2018-11-26T03:05:38.124Z,17.37
2018-11-26T03:08:26.480Z,17.37
2018-11-26T03:11:14.819Z,18.53
2018-11-26T03:14:03.156Z,17.57
2018-11-26T03:16:51.519Z,18.90
2018-11-26T03:19:40.736Z,17.93
2018-11-26T03:22:29.366Z,17.53
2018-11-26T03:25:17.685Z,18.83
2018-11-26T03:28:06.753Z,17.37
2018-11-26T03:30:55.091Z,16.50
2018-11-26T03:33:43.415Z,16.60
2018-11-26T03:36:31.746Z,17.63
2018-11-26T03:39:20.088Z,19.30
2018-11-26T03:42:08.451Z,18.77
2018-11-26T03:44:56.780Z,17.80
2018-11-26T03:50:59.947Z,19.03
2018-11-26T03:53:48.545Z,16.73
2018-11-26T03:56:36.866Z,18.87
2018-11-26T03:59:25.641Z,17.50
2018-11-26T04:02:14.252Z,17.77
2018-11-26T04:05:02.626Z,15.93
2018-11-26T04:07:44.880Z,16.60
2018-11-26T04:10:27.066Z,16.70
2018-11-26T04:13:08.602Z,21.13
2018-11-26T04:15:49.866Z,18.63
2018-11-26T04:18:31.561Z,16.80
2018-11-26T04:21:12.436Z,16.63
2018-11-26T04:23:54.225Z,17.20
2018-11-26T04:26:35.180Z,17.93
2018-11-26T04:29:16.856Z,16.80
2018-11-26T04:31:58.561Z,15.63
2018-11-26T04:34:40.374Z,15.97
2018-11-26T04:37:22.214Z,17.63
2018-11-26T04:40:03.439Z,14.97
2018-11-26T04:42:45.237Z,18.73
2018-11-26T04:45:27.237Z,17.33
2018-11-26T04:48:08.184Z,16.40
2018-11-26T04:50:49.098Z,13.77
2018-11-26T04:53:28.740Z,15.60
2018-11-26T04:56:17.383Z,15.77
2018-11-26T04:59:05.697Z,15.57
2018-11-26T05:01:54.523Z,16.30
2018-11-26T05:04:42.839Z,19.03
2018-11-26T05:07:31.195Z,14.57
2018-11-26T05:10:20.034Z,16.30
2018-11-26T05:13:08.377Z,16.57
2018-11-26T05:15:57.249Z,16.60
2018-11-26T05:18:45.609Z,15.33
2018-11-26T05:21:34.240Z,14.30
2018-11-26T05:24:23.032Z,14.70
2018-11-26T05:27:11.349Z,15.57
2018-11-26T05:29:59.690Z,15.83
2018-11-26T05:32:48.027Z,14.07
2018-11-26T05:35:36.370Z,16.53
2018-11-26T05:38:25.158Z,15.10
2018-11-26T05:41:13.558Z,16.60
2018-11-26T05:44:01.924Z,14.30
2018-11-26T05:46:50.700Z,14.10
2018-11-26T05:49:39.040Z,17.30
2018-11-26T05:52:27.351Z,17.77
2018-11-26T05:55:16.117Z,14.60
2018-11-26T05:58:04.433Z,16.10
2018-11-26T06:00:53.038Z,13.30
2018-11-26T06:03:41.361Z,17.17
2018-11-26T06:06:29.723Z,17.10
2018-11-26T06:09:18.054Z,13.40
2018-11-26T06:12:06.399Z,16.93
2018-11-26T06:14:54.976Z,15.10
2018-11-26T06:17:43.349Z,14.97
2018-11-26T06:20:31.727Z,16.17
2018-11-26T06:23:20.771Z,15.80
2018-11-26T06:26:09.103Z,14.50
2018-11-26T06:28:57.499Z,18.27
2018-11-26T06:31:45.836Z,17.90
2018-11-26T06:34:34.179Z,17.10
2018-11-26T06:37:22.648Z,17.30
2018-11-26T06:40:12.141Z,15.70
2018-11-26T06:43:00.700Z,16.87
2018-11-26T06:45:49.043Z,17.10
2018-11-26T06:48:37.591Z,17.53
2018-11-26T06:51:25.969Z,17.23
2018-11-26T06:54:14.316Z,18.00
2018-11-26T06:57:03.061Z,17.03
2018-11-26T06:59:51.859Z,19.50
2018-11-26T07:02:40.700Z,17.73
2018-11-26T07:05:29.040Z,17.40
2018-11-26T07:08:17.414Z,17.87
2018-11-26T07:11:06.108Z,18.17
2018-11-26T07:13:54.431Z,19.40
2018-11-26T07:16:42.768Z,17.97
2018-11-26T07:19:31.344Z,17.90
2018-11-26T07:22:19.711Z,17.90
2018-11-26T07:28:22.261Z,19.70
2018-11-26T07:31:10.957Z,18.63
2018-11-26T07:33:59.320Z,17.57
2018-11-26T07:36:47.950Z,18.73
2018-11-26T07:39:36.629Z,18.97
2018-11-26T07:42:24.967Z,19.77
2018-11-26T07:45:13.538Z,16.70
2018-11-26T07:48:01.928Z,16.27
2018-11-26T07:50:50.331Z,18.27
2018-11-26T07:53:38.808Z,16.37
2018-11-26T07:59:56.185Z,17.93
2018-11-26T08:02:47.518Z,19.30
2018-11-26T08:05:36.477Z,19.20
2018-11-26T08:08:24.933Z,15.60
2018-11-26T08:11:14.748Z,20.30
2018-11-26T08:17:33.060Z,17.80
2018-11-26T08:23:37.289Z,17.07
2018-11-26T08:29:43.826Z,19.63
2018-11-26T08:36:10.847Z,17.63
2018-11-26T08:39:19.386Z,16.07
2018-11-26T08:42:27.833Z,17.50
2018-11-26T08:45:36.028Z,16.13
2018-11-26T08:48:54.481Z,17.30
2018-11-26T08:52:03.529Z,17.73
2018-11-26T08:54:53.032Z,17.20
2018-11-26T08:57:42.199Z,17.23
2018-11-26T09:45:55.974Z,16.57
2018-11-26T10:06:10.701Z,15.13
2018-11-26T10:24:40.480Z,13.93
2018-11-26T10:31:19.603Z,16.60
2018-11-26T10:37:42.139Z,13.47
2018-11-26T10:40:52.777Z,12.77
2018-11-26T10:46:53.015Z,12.53
2018-11-26T10:49:45.645Z,14.37
2018-11-26T11:02:35.256Z,13.57
2018-11-26T11:08:40.191Z,12.00
2018-11-26T11:11:30.113Z,11.83
2018-11-26T11:17:39.457Z,13.20
2018-11-26T11:24:04.257Z,10.40
2018-11-26T11:27:13.704Z,10.90
2018-11-26T11:30:03.372Z,10.90
2018-11-26T11:36:08.789Z,11.30
2018-11-26T11:38:59.019Z,11.87
2018-11-26T11:45:04.849Z,10.70
2018-11-26T11:51:46.251Z,9.70
2018-11-26T11:55:05.519Z,10.80
2018-11-26T11:58:14.928Z,11.77
2018-11-26T12:04:12.348Z,12.10
2018-11-26T12:10:10.929Z,11.17
2018-11-26T12:13:00.683Z,8.93
2018-11-26T12:19:03.992Z,9.13
2018-11-26T12:28:20.335Z,10.80
2018-11-26T12:38:02.805Z,10.73
2018-11-26T12:40:52.620Z,9.53
2018-11-26T12:43:43.046Z,10.47
2018-11-26T12:46:32.574Z,9.90
2018-11-26T12:49:22.370Z,10.00
2018-11-26T12:52:11.993Z,9.73
2018-11-26T12:55:01.600Z,10.43
2018-11-26T12:57:51.525Z,9.20
2018-11-26T13:03:49.365Z,10.17
2018-11-26T13:09:47.885Z,10.30
2018-11-26T13:12:37.268Z,12.83
2018-11-26T13:15:27.144Z,10.30
2018-11-26T13:18:16.678Z,13.27
2018-11-26T13:33:37.672Z,10.67
2018-11-26T13:46:07.413Z,12.10
2018-11-26T13:48:57.351Z,12.57
2018-11-26T13:51:46.982Z,11.23
2018-11-26T13:54:36.658Z,10.53
2018-11-26T14:03:42.438Z,11.77
2018-11-26T14:06:31.056Z,11.10
2018-11-26T14:09:19.870Z,11.77
2018-11-26T14:12:08.193Z,10.20
2018-11-26T14:14:56.871Z,11.20
2018-11-26T14:17:45.700Z,11.40
2018-11-26T14:20:34.349Z,11.73
2018-11-26T14:26:37.562Z,11.47
2018-11-26T14:29:26.191Z,13.00
2018-11-26T14:32:14.544Z,11.00
2018-11-26T14:35:03.334Z,12.07
2018-11-26T14:38:11.446Z,12.37
2018-11-26T14:41:00.038Z,9.63
2018-11-26T14:43:48.429Z,10.23
2018-11-26T14:46:36.753Z,10.80
2018-11-26T14:49:25.376Z,11.40
2018-11-26T14:52:13.717Z,12.70
2018-11-26T14:55:02.052Z,12.83
2018-11-26T14:57:50.454Z,10.97
2018-11-26T15:00:38.796Z,12.90
2018-11-26T15:03:27.301Z,10.47
2018-11-26T15:06:15.638Z,11.53
2018-11-26T15:09:05.807Z,11.03
2018-11-26T15:11:54.504Z,12.13
2018-11-26T15:15:02.595Z,11.53
2018-11-26T15:17:51.054Z,12.30
2018-11-26T15:20:39.764Z,13.83
2018-11-26T15:23:28.405Z,10.30
2018-11-26T15:26:16.713Z,12.50
2018-11-26T15:29:05.426Z,10.77
2018-11-26T15:31:53.759Z,11.00
2018-11-26T15:34:42.421Z,10.90
2018-11-26T15:37:31.119Z,11.10
2018-11-26T15:40:19.907Z,10.53
2018-11-26T15:43:08.249Z,10.83
2018-11-26T15:45:57.285Z,12.57
2018-11-26T15:48:45.635Z,13.27
2018-11-26T15:51:34.019Z,12.60
2018-11-26T15:54:22.925Z,11.70
2018-11-26T15:57:11.977Z,10.90
2018-11-26T16:03:08.628Z,11.47
2018-11-26T16:05:56.989Z,11.47
2018-11-26T16:08:45.369Z,11.80
2018-11-26T16:11:33.701Z,11.60
2018-11-26T16:14:22.076Z,11.03
2018-11-26T16:17:10.785Z,9.60
2018-11-26T16:19:59.170Z,10.73
2018-11-26T16:22:47.555Z,10.40
2018-11-26T16:25:36.271Z,10.87
2018-11-26T16:28:24.601Z,9.83
2018-11-26T16:31:12.950Z,10.60
2018-11-26T16:34:01.302Z,10.47
2018-11-26T16:36:49.953Z,11.63
2018-11-26T16:39:38.373Z,9.73
2018-11-26T16:42:26.697Z,11.20
2018-11-26T16:45:15.593Z,10.50
2018-11-26T16:48:03.925Z,10.30
2018-11-26T16:50:52.289Z,9.23
2018-11-26T16:53:40.647Z,10.30
2018-11-26T16:56:36.111Z,8.90
2018-11-26T16:59:24.471Z,9.57
2018-11-26T17:02:12.845Z,10.13
2018-11-26T17:05:01.183Z,11.33
2018-11-26T17:07:49.606Z,10.33
2018-11-26T17:10:38.188Z,9.43
2018-11-26T17:13:26.859Z,9.30
2018-11-26T17:16:16.325Z,9.73
2018-11-26T17:19:04.758Z,10.03
2018-11-26T17:21:53.095Z,10.40
2018-11-26T17:24:41.459Z,10.30
2018-11-26T17:27:29.792Z,9.30
2018-11-26T17:30:28.107Z,9.13
2018-11-26T17:36:07.008Z,9.53
2018-11-26T17:38:54.246Z,9.23
2018-11-26T17:41:42.583Z,9.77
2018-11-26T17:44:30.978Z,8.50
2018-11-26T17:47:19.379Z,11.43
2018-11-26T17:50:09.636Z,9.37
2018-11-26T17:52:58.512Z,9.50
2018-11-26T17:55:50.508Z,8.60
2018-11-26T18:01:53.265Z,9.37
2018-11-26T18:04:44.421Z,9.00
2018-11-26T18:07:30.001Z,9.43
2018-11-26T18:10:18.747Z,9.57
2018-11-26T18:13:07.275Z,7.90
2018-11-26T18:15:55.701Z,7.87
2018-11-26T18:22:00.511Z,9.80
2018-11-26T18:24:50.080Z,8.23
2018-11-26T18:30:56.574Z,8.77
2018-11-26T18:33:46.506Z,8.90
2018-11-26T18:39:37.496Z,8.80
2018-11-26T18:42:27.544Z,9.70
2018-11-26T18:45:15.617Z,7.87
2018-11-26T18:48:05.508Z,8.53
2018-11-26T18:50:55.839Z,7.63
2018-11-26T18:53:44.993Z,7.87
2018-11-26T19:03:03.643Z,8.93
2018-11-26T19:05:55.630Z,9.00
2018-11-26T19:08:43.324Z,8.80
2018-11-26T19:21:58.758Z,9.70
2018-11-26T19:24:55.556Z,8.30
2018-11-26T19:28:08.505Z,10.63
2018-11-26T19:31:30.882Z,8.77
2018-11-26T19:57:39.115Z,9.20
2018-11-26T20:00:29.190Z,9.43
2018-11-26T20:06:33.533Z,9.50
2018-11-26T20:09:23.160Z,10.50
2018-11-26T20:12:12.023Z,12.17
2018-11-26T20:18:15.818Z,9.03
2018-11-26T20:21:06.849Z,8.10
2018-11-26T20:30:06.182Z,11.93
2018-11-26T20:32:54.400Z,11.80
2018-11-26T20:35:43.259Z,10.80
2018-11-26T20:38:32.011Z,12.40
2018-11-26T20:44:38.612Z,11.60
2018-11-26T20:50:51.097Z,11.03
2018-11-26T20:54:09.081Z,10.97
2018-11-26T20:56:58.849Z,10.73
2018-11-26T20:59:47.838Z,11.50
2018-11-26T21:05:51.356Z,10.67
2018-11-26T21:08:39.924Z,10.07
2018-11-26T21:11:32.373Z,9.43
2018-11-26T21:14:21.662Z,10.97
2018-11-26T21:17:29.791Z,13.67
2018-11-26T21:20:22.953Z,10.70
2018-11-26T21:23:14.218Z,10.70
2018-11-26T21:29:18.913Z,15.27
2018-11-26T21:32:08.429Z,23.17
2018-11-26T21:34:58.943Z,25.60
2018-11-26T21:38:07.243Z,23.20
2018-11-26T21:44:21.230Z,23.90
2018-11-26T21:47:09.217Z,22.13
2018-11-26T21:49:58.966Z,19.07
2018-11-26T21:52:49.198Z,18.53
2018-11-26T21:55:41.761Z,18.97
2018-11-26T22:01:44.092Z,17.77
2018-11-26T22:04:32.592Z,17.87
2018-11-26T22:07:22.286Z,16.80
2018-11-26T22:10:12.166Z,16.37
2018-11-26T22:13:00.906Z,18.17
2018-11-26T22:15:50.150Z,18.37
2018-11-26T22:18:39.265Z,15.43
2018-11-26T22:24:42.631Z,16.63
2018-11-26T22:27:32.155Z,17.20
2018-11-26T22:30:29.995Z,15.83
2018-11-26T22:33:18.559Z,17.00
2018-11-26T22:36:07.309Z,18.80
2018-11-26T22:45:26.876Z,16.50
2018-11-26T22:48:15.480Z,17.90
2018-11-26T22:51:04.728Z,13.90
2018-11-26T22:53:53.977Z,13.47
2018-11-26T22:56:43.289Z,13.73
2018-11-26T22:59:31.697Z,14.47
2018-11-26T23:02:21.110Z,14.40
2018-11-26T23:05:11.269Z,13.07
2018-11-26T23:08:00.438Z,13.83
2018-11-26T23:13:51.993Z,13.00
2018-11-26T23:19:55.858Z,14.10
2018-11-26T23:26:09.537Z,14.30
2018-11-26T23:32:02.198Z,10.97
2018-11-26T23:34:52.599Z,12.70
2018-11-26T23:37:44.357Z,13.70
2018-11-26T23:40:31.140Z,16.03
2018-11-26T23:43:21.745Z,11.00
2018-11-26T23:46:11.204Z,14.10
2018-11-26T23:55:36.832Z,12.10
2018-11-26T23:58:26.296Z,11.63
